createdAt,value
2017-06-10T00:00:20.900Z,996.7
2017-06-10T00:01:21.128Z,996.72
2017-06-10T00:02:20.953Z,996.71
2017-06-10T00:03:20.982Z,996.71
2017-06-10T00:04:21.011Z,996.67
2017-06-10T00:05:21.041Z,996.68
2017-06-10T00:06:21.320Z,996.74
2017-06-10T00:07:21.093Z,996.7
2017-06-10T00:08:21.122Z,996.71
2017-06-10T00:09:21.152Z,996.72
2017-06-10T00:10:21.181Z,996.75
2017-06-10T00:11:21.460Z,996.74
2017-06-10T00:12:21.233Z,996.78
2017-06-10T00:13:21.262Z,996.76
2017-06-10T00:14:21.291Z,996.72
2017-06-10T00:15:21.320Z,996.77
2017-06-10T00:16:21.545Z,996.73
2017-06-10T00:17:21.374Z,996.83
2017-06-10T00:18:21.403Z,996.82
2017-06-10T00:19:21.427Z,996.86
2017-06-10T00:20:21.456Z,996.83
2017-06-10T00:21:21.685Z,996.84
2017-06-10T00:22:21.510Z,996.82
2017-06-10T00:23:21.542Z,996.79
2017-06-10T00:24:21.570Z,996.82
2017-06-10T00:25:21.595Z,996.81
2017-06-10T00:26:21.876Z,996.84
2017-06-10T00:27:21.650Z,996.83
2017-06-10T00:28:21.703Z,996.85
2017-06-10T00:29:21.708Z,996.86
2017-06-10T00:30:21.735Z,996.86
2017-06-10T00:31:21.963Z,996.87
2017-06-10T00:32:21.792Z,996.85
2017-06-10T00:33:21.818Z,996.83
2017-06-10T00:34:21.847Z,996.84
2017-06-10T00:35:21.875Z,996.85
2017-06-10T00:36:22.157Z,996.89
2017-06-10T00:37:21.925Z,996.9
2017-06-10T00:38:21.954Z,996.94
2017-06-10T00:39:21.987Z,996.89
2017-06-10T00:40:22.015Z,996.91
2017-06-10T00:41:22.239Z,996.93
2017-06-10T00:42:22.070Z,996.9
2017-06-10T00:43:22.095Z,996.9
2017-06-10T00:44:22.126Z,996.9
2017-06-10T00:45:22.152Z,996.92
2017-06-10T00:46:22.181Z,996.88
2017-06-10T00:47:22.208Z,996.91
2017-06-10T00:48:22.238Z,996.86
2017-06-10T00:49:22.263Z,996.93
2017-06-10T00:50:22.292Z,996.91
2017-06-10T00:51:22.320Z,996.88
2017-06-10T00:52:22.345Z,996.93
2017-06-10T00:53:22.374Z,996.94
2017-06-10T00:54:22.403Z,996.92
2017-06-10T00:55:22.435Z,996.94
2017-06-10T00:56:22.459Z,996.88
2017-06-10T00:57:22.485Z,996.9
2017-06-10T00:58:22.513Z,996.95
2017-06-10T00:59:22.543Z,996.96
2017-06-10T01:00:22.573Z,996.97
2017-06-10T01:01:22.594Z,997.01
2017-06-10T01:02:22.621Z,997
2017-06-10T01:03:22.655Z,997.05
2017-06-10T01:04:22.683Z,997.04
2017-06-10T01:05:22.707Z,997.05
2017-06-10T01:06:22.741Z,997.01
2017-06-10T01:07:22.760Z,997.03
2017-06-10T01:08:22.793Z,997.02
2017-06-10T01:09:22.818Z,997.05
2017-06-10T01:10:22.846Z,997.07
2017-06-10T01:11:22.877Z,997.07
2017-06-10T01:12:22.899Z,997.07
2017-06-10T01:13:22.930Z,997.06
2017-06-10T01:14:22.958Z,997.09
2017-06-10T01:15:22.988Z,997.08
2017-06-10T01:16:23.013Z,997.08
2017-06-10T01:17:23.037Z,997.08
2017-06-10T01:18:23.070Z,997.06
2017-06-10T01:19:23.100Z,997.07
2017-06-10T01:20:23.123Z,997.07
2017-06-10T01:21:23.153Z,997.03
2017-06-10T01:22:23.176Z,997.04
2017-06-10T01:23:23.210Z,997.1
2017-06-10T01:24:23.233Z,997.04
2017-06-10T01:25:23.263Z,997.07
2017-06-10T01:26:23.288Z,997.08
2017-06-10T01:27:23.322Z,997.06
2017-06-10T01:28:23.345Z,997.08
2017-06-10T01:29:23.374Z,997.09
2017-06-10T01:30:23.399Z,997.11
2017-06-10T01:31:23.427Z,997.07
2017-06-10T01:32:23.453Z,997.1
2017-06-10T01:33:23.485Z,997.1
2017-06-10T01:34:23.511Z,997.06
2017-06-10T01:35:23.540Z,997.06
2017-06-10T01:36:23.569Z,997.03
2017-06-10T01:37:23.596Z,997.05
2017-06-10T01:38:23.622Z,997.02
2017-06-10T01:39:23.651Z,997.06
2017-06-10T01:40:23.679Z,997.06
2017-06-10T01:41:23.709Z,997.07
2017-06-10T01:42:23.728Z,997.03
2017-06-10T01:43:23.762Z,997.05
2017-06-10T01:44:23.790Z,997.06
2017-06-10T01:45:23.814Z,997.05
2017-06-10T01:46:23.843Z,997.13
2017-06-10T01:47:23.868Z,997.12
2017-06-10T01:48:23.905Z,997.05
2017-06-10T01:49:23.926Z,997.1
2017-06-10T01:50:23.953Z,997.11
2017-06-10T01:51:23.982Z,997.13
2017-06-10T01:52:24.012Z,997.12
2017-06-10T01:53:24.040Z,997.14
2017-06-10T01:54:24.066Z,997.1
2017-06-10T01:55:24.094Z,997.12
2017-06-10T01:56:24.124Z,997.16
2017-06-10T01:57:24.146Z,997.17
2017-06-10T01:58:24.177Z,997.18
2017-06-10T01:59:24.205Z,997.22
2017-06-10T02:00:24.234Z,997.2
2017-06-10T02:01:24.259Z,997.2
2017-06-10T02:02:24.288Z,997.19
2017-06-10T02:03:24.317Z,997.18
2017-06-10T02:04:24.341Z,997.18
2017-06-10T02:05:24.371Z,997.19
2017-06-10T02:06:24.400Z,997.17
2017-06-10T02:07:24.420Z,997.23
2017-06-10T02:08:24.448Z,997.2
2017-06-10T02:09:24.480Z,997.23
2017-06-10T02:10:24.510Z,997.28
2017-06-10T02:11:24.535Z,997.27
2017-06-10T02:12:24.560Z,997.3
2017-06-10T02:13:24.592Z,997.33
2017-06-10T02:14:24.616Z,997.33
2017-06-10T02:15:24.646Z,997.33
2017-06-10T02:16:24.673Z,997.31
2017-06-10T02:17:24.695Z,997.34
2017-06-10T02:18:24.729Z,997.33
2017-06-10T02:19:24.753Z,997.34
2017-06-10T02:20:24.782Z,997.37
2017-06-10T02:21:24.811Z,997.38
2017-06-10T02:22:24.837Z,997.39
2017-06-10T02:23:24.869Z,997.37
2017-06-10T02:24:24.888Z,997.38
2017-06-10T02:25:24.921Z,997.38
2017-06-10T02:26:24.950Z,997.37
2017-06-10T02:27:24.976Z,997.38
2017-06-10T02:28:25.005Z,997.4
2017-06-10T02:29:25.032Z,997.35
2017-06-10T02:30:25.061Z,997.38
2017-06-10T02:31:25.087Z,997.38
2017-06-10T02:32:25.110Z,997.41
2017-06-10T02:33:25.144Z,997.35
2017-06-10T02:34:25.165Z,997.4
2017-06-10T02:35:25.198Z,997.35
2017-06-10T02:36:25.227Z,997.39
2017-06-10T02:37:25.250Z,997.41
2017-06-10T02:38:25.279Z,997.42
2017-06-10T02:39:25.307Z,997.4
2017-06-10T02:40:25.337Z,997.4
2017-06-10T02:41:25.362Z,997.44
2017-06-10T02:42:25.387Z,997.46
2017-06-10T02:43:25.419Z,997.44
2017-06-10T02:44:25.444Z,997.48
2017-06-10T02:45:25.474Z,997.46
2017-06-10T02:46:25.502Z,997.41
2017-06-10T02:47:25.526Z,997.41
2017-06-10T02:48:25.556Z,997.45
2017-06-10T02:49:25.585Z,997.47
2017-06-10T02:50:25.609Z,997.54
2017-06-10T02:51:25.638Z,997.5
2017-06-10T02:52:25.917Z,997.5
2017-06-10T02:53:25.692Z,997.6
2017-06-10T02:54:25.721Z,997.57
2017-06-10T02:55:25.749Z,997.58
2017-06-10T02:56:25.772Z,997.6
2017-06-10T02:57:26.058Z,997.57
2017-06-10T02:58:25.831Z,997.57
2017-06-10T02:59:25.861Z,997.57
2017-06-10T03:00:25.881Z,997.64
2017-06-10T03:01:25.913Z,997.68
2017-06-10T03:02:26.195Z,997.65
2017-06-10T03:03:25.968Z,997.72
2017-06-10T03:04:25.997Z,997.67
2017-06-10T03:05:26.020Z,997.69
2017-06-10T03:06:26.046Z,997.69
2017-06-10T03:07:26.330Z,997.7
2017-06-10T03:08:26.109Z,997.69
2017-06-10T03:09:26.132Z,997.71
2017-06-10T03:10:26.161Z,997.69
2017-06-10T03:11:26.187Z,997.73
2017-06-10T03:12:26.211Z,997.7
2017-06-10T03:13:26.244Z,997.74
2017-06-10T03:14:26.272Z,997.74
2017-06-10T03:15:26.297Z,997.69
2017-06-10T03:16:26.325Z,997.72
2017-06-10T03:17:26.350Z,997.69
2017-06-10T03:18:26.380Z,997.73
2017-06-10T03:19:26.403Z,997.75
2017-06-10T03:20:26.437Z,997.7
2017-06-10T03:21:26.461Z,997.73
2017-06-10T03:22:26.490Z,997.74
2017-06-10T03:23:26.516Z,997.73
2017-06-10T03:24:26.543Z,997.75
2017-06-10T03:25:26.572Z,997.76
2017-06-10T03:26:26.602Z,997.8
2017-06-10T03:27:26.622Z,997.82
2017-06-10T03:28:26.652Z,997.9
2017-06-10T03:29:26.681Z,997.91
2017-06-10T03:30:26.709Z,997.92
2017-06-10T03:31:26.737Z,997.93
2017-06-10T03:32:26.766Z,997.97
2017-06-10T03:33:26.790Z,997.95
2017-06-10T03:34:26.820Z,997.98
2017-06-10T03:35:26.849Z,998.01
2017-06-10T03:36:26.874Z,997.99
2017-06-10T03:37:26.902Z,997.98
2017-06-10T03:38:26.927Z,998.01
2017-06-10T03:39:26.951Z,998.01
2017-06-10T03:40:26.985Z,997.94
2017-06-10T03:41:27.009Z,997.96
2017-06-10T03:42:27.037Z,997.99
2017-06-10T03:43:27.066Z,998
2017-06-10T03:44:27.093Z,998
2017-06-10T03:45:27.122Z,997.99
2017-06-10T03:46:27.150Z,998.02
2017-06-10T03:47:27.174Z,998.02
2017-06-10T03:48:27.201Z,997.98
2017-06-10T03:49:27.226Z,998
2017-06-10T03:50:27.256Z,998.03
2017-06-10T03:51:27.288Z,998.03
2017-06-10T03:52:27.311Z,998.06
2017-06-10T03:53:27.339Z,998.08
2017-06-10T03:54:27.369Z,998.13
2017-06-10T03:55:27.392Z,998.1
2017-06-10T03:56:27.421Z,998.11
2017-06-10T03:57:27.450Z,998.1
2017-06-10T03:58:27.470Z,998.08
2017-06-10T03:59:27.499Z,998.11
2017-06-10T04:00:27.533Z,998.12
2017-06-10T04:01:27.556Z,998.16
2017-06-10T04:02:27.586Z,998.14
2017-06-10T04:03:27.611Z,998.14
2017-06-10T04:04:27.639Z,998.15
2017-06-10T04:05:27.668Z,998.14
2017-06-10T04:06:27.693Z,998.2
2017-06-10T04:07:27.722Z,998.16
2017-06-10T04:08:27.746Z,998.16
2017-06-10T04:09:27.774Z,998.16
2017-06-10T04:10:27.804Z,998.15
2017-06-10T04:11:27.833Z,998.13
2017-06-10T04:12:27.858Z,998.11
2017-06-10T04:13:27.885Z,998.17
2017-06-10T04:14:27.912Z,998.13
2017-06-10T04:15:27.940Z,998.14
2017-06-10T04:16:27.969Z,998.17
2017-06-10T04:17:27.991Z,998.13
2017-06-10T04:18:28.021Z,998.14
2017-06-10T04:19:28.051Z,998.13
2017-06-10T04:20:28.075Z,998.13
2017-06-10T04:21:28.105Z,998.14
2017-06-10T04:22:28.134Z,998.11
2017-06-10T04:23:28.158Z,998.13
2017-06-10T04:24:28.188Z,998.13
2017-06-10T04:25:28.212Z,998.16
2017-06-10T04:26:28.246Z,998.15
2017-06-10T04:27:28.269Z,998.15
2017-06-10T04:28:28.295Z,998.15
2017-06-10T04:29:28.324Z,998.13
2017-06-10T04:30:28.352Z,998.13
2017-06-10T04:31:28.377Z,998.18
2017-06-10T04:32:28.406Z,998.19
2017-06-10T04:33:28.435Z,998.19
2017-06-10T04:34:28.459Z,998.18
2017-06-10T04:35:28.487Z,998.19
2017-06-10T04:36:28.512Z,998.21
2017-06-10T04:37:28.541Z,998.22
2017-06-10T04:38:28.570Z,998.24
2017-06-10T04:39:28.595Z,998.29
2017-06-10T04:40:28.623Z,998.24
2017-06-10T04:41:28.653Z,998.27
2017-06-10T04:42:28.677Z,998.26
2017-06-10T04:43:28.706Z,998.29
2017-06-10T04:44:28.735Z,998.31
2017-06-10T04:45:28.759Z,998.29
2017-06-10T04:46:28.788Z,998.33
2017-06-10T04:47:28.814Z,998.31
2017-06-10T04:48:28.843Z,998.34
2017-06-10T04:49:28.870Z,998.3
2017-06-10T04:50:28.895Z,998.3
2017-06-10T04:51:28.924Z,998.31
2017-06-10T04:52:28.953Z,998.34
2017-06-10T04:53:28.978Z,998.33
2017-06-10T04:54:29.009Z,998.33
2017-06-10T04:55:29.035Z,998.36
2017-06-10T04:56:29.060Z,998.37
2017-06-10T04:57:29.089Z,998.41
2017-06-10T04:58:29.120Z,998.39
2017-06-10T04:59:29.138Z,998.43
2017-06-10T05:00:29.171Z,998.45
2017-06-10T05:01:29.200Z,998.48
2017-06-10T05:02:29.224Z,998.49
2017-06-10T05:03:29.254Z,998.49
2017-06-10T05:04:29.282Z,998.5
2017-06-10T05:05:29.307Z,998.5
2017-06-10T05:06:29.335Z,998.49
2017-06-10T05:07:29.362Z,998.46
2017-06-10T05:08:29.390Z,998.48
2017-06-10T05:09:29.419Z,998.45
2017-06-10T05:10:29.447Z,998.51
2017-06-10T05:11:29.472Z,998.51
2017-06-10T05:12:29.499Z,998.53
2017-06-10T05:13:29.527Z,998.55
2017-06-10T05:14:29.550Z,998.56
2017-06-10T05:15:29.583Z,998.56
2017-06-10T05:16:29.608Z,998.57
2017-06-10T05:17:29.637Z,998.61
2017-06-10T05:18:29.865Z,998.65
2017-06-10T05:19:29.687Z,998.59
2017-06-10T05:20:29.718Z,998.65
2017-06-10T05:21:29.748Z,998.62
2017-06-10T05:22:29.775Z,998.69
2017-06-10T05:23:30.002Z,998.67
2017-06-10T05:24:29.822Z,998.68
2017-06-10T05:25:29.854Z,998.69
2017-06-10T05:26:29.955Z,998.7
2017-06-10T05:27:29.908Z,998.67
2017-06-10T05:28:30.089Z,998.66
2017-06-10T05:29:29.965Z,998.68
2017-06-10T05:30:29.985Z,998.7
2017-06-10T05:31:30.019Z,998.7
2017-06-10T05:32:30.048Z,998.66
2017-06-10T05:33:30.272Z,998.62
2017-06-10T05:34:30.098Z,998.65
2017-06-10T05:35:30.130Z,998.63
2017-06-10T05:36:30.156Z,998.66
2017-06-10T05:37:30.179Z,998.62
2017-06-10T05:38:30.408Z,998.64
2017-06-10T05:39:30.238Z,998.69
2017-06-10T05:40:30.266Z,998.66
2017-06-10T05:41:30.292Z,998.69
2017-06-10T05:42:30.321Z,998.67
2017-06-10T05:43:30.501Z,998.71
2017-06-10T05:44:30.374Z,998.64
2017-06-10T05:45:30.402Z,998.69
2017-06-10T05:46:30.430Z,998.65
2017-06-10T05:47:30.455Z,998.65
2017-06-10T05:48:30.636Z,998.65
2017-06-10T05:49:30.509Z,998.65
2017-06-10T05:50:30.565Z,998.64
2017-06-10T05:51:30.567Z,998.64
2017-06-10T05:52:30.588Z,998.67
2017-06-10T05:53:30.903Z,998.65
2017-06-10T05:54:30.645Z,998.68
2017-06-10T05:55:30.704Z,998.69
2017-06-10T05:56:30.703Z,998.71
2017-06-10T05:57:30.735Z,998.72
2017-06-10T05:58:30.957Z,998.73
2017-06-10T05:59:30.786Z,998.74
2017-06-10T06:00:30.814Z,998.74
2017-06-10T06:01:30.839Z,998.72
2017-06-10T06:02:30.868Z,998.74
2017-06-10T06:03:31.047Z,998.76
2017-06-10T06:04:30.922Z,998.75
2017-06-10T06:05:30.951Z,998.77
2017-06-10T06:06:30.980Z,998.76
2017-06-10T06:07:30.996Z,998.74
2017-06-10T06:08:31.183Z,998.74
2017-06-10T06:09:31.060Z,998.73
2017-06-10T06:10:31.082Z,998.75
2017-06-10T06:11:31.115Z,998.78
2017-06-10T06:12:31.143Z,998.71
2017-06-10T06:13:31.319Z,998.75
2017-06-10T06:14:31.197Z,998.75
2017-06-10T06:15:31.226Z,998.77
2017-06-10T06:16:31.251Z,998.75
2017-06-10T06:17:31.279Z,998.76
2017-06-10T06:18:31.305Z,998.76
2017-06-10T06:19:31.334Z,998.78
2017-06-10T06:20:31.356Z,998.8
2017-06-10T06:21:31.391Z,998.77
2017-06-10T06:22:31.415Z,998.81
2017-06-10T06:23:31.444Z,998.78
2017-06-10T06:24:31.473Z,998.8
2017-06-10T06:25:31.498Z,998.85
2017-06-10T06:26:31.527Z,998.78
2017-06-10T06:27:31.556Z,998.82
2017-06-10T06:28:31.579Z,998.79
2017-06-10T06:29:31.604Z,998.84
2017-06-10T06:30:31.633Z,998.83
2017-06-10T06:31:31.665Z,998.85
2017-06-10T06:32:31.691Z,998.9
2017-06-10T06:33:31.720Z,998.9
2017-06-10T06:34:31.748Z,998.9
2017-06-10T06:35:31.776Z,998.88
2017-06-10T06:36:31.803Z,998.88
2017-06-10T06:37:31.832Z,998.92
2017-06-10T06:38:31.859Z,998.91
2017-06-10T06:39:31.884Z,998.93
2017-06-10T06:40:31.908Z,998.89
2017-06-10T06:41:31.942Z,998.9
2017-06-10T06:42:31.966Z,998.88
2017-06-10T06:43:31.997Z,998.88
2017-06-10T06:44:32.024Z,998.89
2017-06-10T06:45:32.048Z,998.92
2017-06-10T06:46:32.077Z,998.95
2017-06-10T06:47:32.107Z,998.94
2017-06-10T06:48:32.130Z,998.93
2017-06-10T06:49:32.161Z,998.97
2017-06-10T06:50:32.189Z,998.99
2017-06-10T06:51:32.214Z,998.97
2017-06-10T06:52:32.259Z,999.02
2017-06-10T06:53:32.270Z,999.01
2017-06-10T06:54:32.297Z,999.01
2017-06-10T06:55:32.320Z,998.96
2017-06-10T06:56:32.353Z,998.96
2017-06-10T06:57:32.382Z,998.97
2017-06-10T06:58:32.409Z,998.96
2017-06-10T06:59:32.437Z,998.96
2017-06-10T07:00:32.461Z,998.95
2017-06-10T07:01:32.490Z,998.92
2017-06-10T07:02:32.519Z,998.97
2017-06-10T07:03:32.547Z,999.01
2017-06-10T07:04:32.576Z,998.99
2017-06-10T07:05:32.596Z,999.01
2017-06-10T07:06:32.631Z,999.01
2017-06-10T07:07:32.659Z,998.98
2017-06-10T07:08:32.683Z,998.96
2017-06-10T07:09:32.709Z,999
2017-06-10T07:10:32.741Z,999
2017-06-10T07:11:32.770Z,998.96
2017-06-10T07:12:32.795Z,998.96
2017-06-10T07:13:32.823Z,999
2017-06-10T07:14:32.846Z,999
2017-06-10T07:15:32.873Z,999.06
2017-06-10T07:16:32.905Z,999.07
2017-06-10T07:17:32.934Z,999.12
2017-06-10T07:18:32.959Z,999.12
2017-06-10T07:19:32.986Z,999.11
2017-06-10T07:20:33.011Z,999.09
2017-06-10T07:21:33.042Z,999.13
2017-06-10T07:22:33.092Z,999.11
2017-06-10T07:23:33.098Z,999.07
2017-06-10T07:24:33.128Z,999.07
2017-06-10T07:25:33.148Z,999.11
2017-06-10T07:26:33.181Z,999.11
2017-06-10T07:27:33.208Z,999.15
2017-06-10T07:28:33.235Z,999.13
2017-06-10T07:29:33.263Z,999.15
2017-06-10T07:30:33.289Z,999.18
2017-06-10T07:31:33.321Z,999.21
2017-06-10T07:32:33.348Z,999.18
2017-06-10T07:33:33.376Z,999.21
2017-06-10T07:34:33.404Z,999.21
2017-06-10T07:35:33.433Z,999.27
2017-06-10T07:36:33.458Z,999.27
2017-06-10T07:37:33.483Z,999.26
2017-06-10T07:38:33.514Z,999.26
2017-06-10T07:39:33.539Z,999.27
2017-06-10T07:40:33.565Z,999.3
2017-06-10T07:41:33.597Z,999.32
2017-06-10T07:42:33.625Z,999.31
2017-06-10T07:43:33.650Z,999.33
2017-06-10T07:44:33.831Z,999.35
2017-06-10T07:45:33.704Z,999.33
2017-06-10T07:46:33.734Z,999.26
2017-06-10T07:47:33.762Z,999.31
2017-06-10T07:48:33.791Z,999.3
2017-06-10T07:49:33.971Z,999.28
2017-06-10T07:50:33.840Z,999.29
2017-06-10T07:51:33.872Z,999.35
2017-06-10T07:52:33.901Z,999.38
2017-06-10T07:53:33.930Z,999.32
2017-06-10T07:54:34.108Z,999.34
2017-06-10T07:55:33.979Z,999.4
2017-06-10T07:56:34.013Z,999.38
2017-06-10T07:57:34.037Z,999.43
2017-06-10T07:58:34.066Z,999.41
2017-06-10T07:59:34.248Z,999.42
2017-06-10T08:00:34.120Z,999.42
2017-06-10T08:01:34.150Z,999.42
2017-06-10T08:02:34.177Z,999.41
2017-06-10T08:03:34.206Z,999.4
2017-06-10T08:04:34.382Z,999.42
2017-06-10T08:05:34.256Z,999.4
2017-06-10T08:06:34.289Z,999.41
2017-06-10T08:07:34.313Z,999.37
2017-06-10T08:08:34.343Z,999.42
2017-06-10T08:09:34.524Z,999.42
2017-06-10T08:10:34.397Z,999.41
2017-06-10T08:11:34.429Z,999.38
2017-06-10T08:12:34.455Z,999.36
2017-06-10T08:13:34.483Z,999.35
2017-06-10T08:14:34.662Z,999.35
2017-06-10T08:15:34.541Z,999.34
2017-06-10T08:16:34.565Z,999.3
2017-06-10T08:17:34.593Z,999.29
2017-06-10T08:18:34.618Z,999.3
2017-06-10T08:19:34.797Z,999.32
2017-06-10T08:20:34.672Z,999.35
2017-06-10T08:21:34.704Z,999.36
2017-06-10T08:22:34.733Z,999.4
2017-06-10T08:23:34.759Z,999.37
2017-06-10T08:24:34.939Z,999.42
2017-06-10T08:25:34.815Z,999.41
2017-06-10T08:26:34.843Z,999.41
2017-06-10T08:27:34.871Z,999.42
2017-06-10T08:28:34.899Z,999.4
2017-06-10T08:29:35.079Z,999.43
2017-06-10T08:30:34.948Z,999.46
2017-06-10T08:31:34.982Z,999.46
2017-06-10T08:32:35.006Z,999.46
2017-06-10T08:33:35.038Z,999.46
2017-06-10T08:34:35.262Z,999.47
2017-06-10T08:35:35.089Z,999.47
2017-06-10T08:36:35.123Z,999.48
2017-06-10T08:37:35.149Z,999.44
2017-06-10T08:38:35.175Z,999.43
2017-06-10T08:39:35.454Z,999.4
2017-06-10T08:40:35.234Z,999.41
2017-06-10T08:41:35.260Z,999.41
2017-06-10T08:42:35.286Z,999.39
2017-06-10T08:43:35.315Z,999.44
2017-06-10T08:44:35.344Z,999.43
2017-06-10T08:45:35.367Z,999.48
2017-06-10T08:46:35.397Z,999.41
2017-06-10T08:47:35.425Z,999.4
2017-06-10T08:48:35.454Z,999.37
2017-06-10T08:49:35.483Z,999.38
2017-06-10T08:50:35.508Z,999.43
2017-06-10T08:51:35.537Z,999.39
2017-06-10T08:52:35.567Z,999.39
2017-06-10T08:53:35.593Z,999.38
2017-06-10T08:54:35.619Z,999.37
2017-06-10T08:55:35.648Z,999.38
2017-06-10T08:56:35.678Z,999.36
2017-06-10T08:57:35.706Z,999.37
2017-06-10T08:58:35.729Z,999.32
2017-06-10T08:59:35.756Z,999.33
2017-06-10T09:00:35.786Z,999.3
2017-06-10T09:01:35.816Z,999.3
2017-06-10T09:02:35.842Z,999.27
2017-06-10T09:03:35.870Z,999.33
2017-06-10T09:04:35.899Z,999.3
2017-06-10T09:05:35.926Z,999.29
2017-06-10T09:06:35.952Z,999.32
2017-06-10T09:07:35.981Z,999.25
2017-06-10T09:08:36.010Z,999.27
2017-06-10T09:09:36.036Z,999.26
2017-06-10T09:10:36.067Z,999.31
2017-06-10T09:11:36.091Z,999.31
2017-06-10T09:12:36.121Z,999.35
2017-06-10T09:13:36.150Z,999.33
2017-06-10T09:14:36.174Z,999.38
2017-06-10T09:15:36.207Z,999.36
2017-06-10T09:16:36.227Z,999.38
2017-06-10T09:17:36.262Z,999.34
2017-06-10T09:18:36.290Z,999.38
2017-06-10T09:19:36.317Z,999.36
2017-06-10T09:20:36.348Z,999.36
2017-06-10T09:21:36.371Z,999.37
2017-06-10T09:22:36.400Z,999.36
2017-06-10T09:23:36.430Z,999.34
2017-06-10T09:24:36.459Z,999.34
2017-06-10T09:25:36.492Z,999.31
2017-06-10T09:26:36.512Z,999.3
2017-06-10T09:27:36.540Z,999.31
2017-06-10T09:28:36.564Z,999.33
2017-06-10T09:29:36.599Z,999.34
2017-06-10T09:30:36.637Z,999.32
2017-06-10T09:31:36.652Z,999.31
2017-06-10T09:32:36.681Z,999.28
2017-06-10T09:33:36.707Z,999.29
2017-06-10T09:34:36.740Z,999.27
2017-06-10T09:35:36.766Z,999.32
2017-06-10T09:36:36.796Z,999.29
2017-06-10T09:37:36.829Z,999.29
2017-06-10T09:38:36.850Z,999.31
2017-06-10T09:39:36.879Z,999.29
2017-06-10T09:40:36.908Z,999.31
2017-06-10T09:41:36.936Z,999.27
2017-06-10T09:42:36.965Z,999.25
2017-06-10T09:43:36.994Z,999.25
2017-06-10T09:44:37.015Z,999.24
2017-06-10T09:45:37.047Z,999.25
2017-06-10T09:46:37.072Z,999.22
2017-06-10T09:47:37.105Z,999.22
2017-06-10T09:48:37.133Z,999.22
2017-06-10T09:49:37.163Z,999.21
2017-06-10T09:50:37.190Z,999.24
2017-06-10T09:51:37.220Z,999.2
2017-06-10T09:52:37.249Z,999.21
2017-06-10T09:53:37.273Z,999.23
2017-06-10T09:54:37.299Z,999.24
2017-06-10T09:55:37.357Z,999.26
2017-06-10T09:56:37.360Z,999.23
2017-06-10T09:57:37.385Z,999.21
2017-06-10T09:58:37.416Z,999.25
2017-06-10T09:59:37.446Z,999.23
2017-06-10T10:00:37.471Z,999.23
2017-06-10T10:01:37.499Z,999.24
2017-06-10T10:02:37.528Z,999.25
2017-06-10T10:03:37.557Z,999.25
2017-06-10T10:04:37.586Z,999.23
2017-06-10T10:05:37.612Z,999.22
2017-06-10T10:06:37.643Z,999.24
2017-06-10T10:07:37.671Z,999.26
2017-06-10T10:08:37.702Z,999.26
2017-06-10T10:09:37.726Z,999.24
2017-06-10T10:10:37.755Z,999.26
2017-06-10T10:11:37.784Z,999.23
2017-06-10T10:12:37.811Z,999.22
2017-06-10T10:13:37.837Z,999.2
2017-06-10T10:14:37.869Z,999.25
2017-06-10T10:15:37.898Z,999.27
2017-06-10T10:16:37.925Z,999.3
2017-06-10T10:17:37.951Z,999.26
2017-06-10T10:18:37.977Z,999.22
2017-06-10T10:19:38.009Z,999.24
2017-06-10T10:20:38.037Z,999.25
2017-06-10T10:21:38.065Z,999.23
2017-06-10T10:22:38.096Z,999.25
2017-06-10T10:23:38.121Z,999.24
2017-06-10T10:24:38.154Z,999.21
2017-06-10T10:25:38.335Z,999.23
2017-06-10T10:26:38.209Z,999.23
2017-06-10T10:27:38.239Z,999.21
2017-06-10T10:28:38.269Z,999.19
2017-06-10T10:29:38.294Z,999.18
2017-06-10T10:30:38.473Z,999.17
2017-06-10T10:31:38.351Z,999.2
2017-06-10T10:32:38.375Z,999.24
2017-06-10T10:33:38.409Z,999.25
2017-06-10T10:34:38.437Z,999.21
2017-06-10T10:35:38.665Z,999.21
2017-06-10T10:36:38.493Z,999.22
2017-06-10T10:37:38.522Z,999.2
2017-06-10T10:38:38.552Z,999.23
2017-06-10T10:39:38.579Z,999.25
2017-06-10T10:40:38.810Z,999.2
2017-06-10T10:41:38.634Z,999.21
2017-06-10T10:42:38.663Z,999.24
2017-06-10T10:43:38.692Z,999.24
2017-06-10T10:44:38.720Z,999.3
2017-06-10T10:45:38.948Z,999.27
2017-06-10T10:46:38.779Z,999.24
2017-06-10T10:47:38.806Z,999.23
2017-06-10T10:48:38.836Z,999.23
2017-06-10T10:49:38.864Z,999.24
2017-06-10T10:50:39.144Z,999.2
2017-06-10T10:51:38.922Z,999.17
2017-06-10T10:52:38.951Z,999.19
2017-06-10T10:53:38.979Z,999.16
2017-06-10T10:54:39.008Z,999.08
2017-06-10T10:55:39.235Z,999.11
2017-06-10T10:56:39.067Z,999.16
2017-06-10T10:57:39.094Z,999.17
2017-06-10T10:58:39.122Z,999.14
2017-06-10T10:59:39.150Z,999.14
2017-06-10T11:00:39.329Z,999.16
2017-06-10T11:01:39.206Z,999.16
2017-06-10T11:02:39.236Z,999.16
2017-06-10T11:03:39.264Z,999.16
2017-06-10T11:04:39.294Z,999.1
2017-06-10T11:05:39.471Z,999.13
2017-06-10T11:06:39.346Z,999.14
2017-06-10T11:07:39.380Z,999.14
2017-06-10T11:08:39.407Z,999.13
2017-06-10T11:09:39.436Z,999.14
2017-06-10T11:10:39.620Z,999.16
2017-06-10T11:11:39.489Z,999.15
2017-06-10T11:12:39.522Z,999.19
2017-06-10T11:13:39.550Z,999.16
2017-06-10T11:14:39.579Z,999.13
2017-06-10T11:15:39.759Z,999.09
2017-06-10T11:16:39.637Z,999.09
2017-06-10T11:17:39.667Z,999.09
2017-06-10T11:18:39.696Z,999.08
2017-06-10T11:19:39.722Z,999.12
2017-06-10T11:20:39.953Z,999.15
2017-06-10T11:21:39.783Z,999.09
2017-06-10T11:22:39.810Z,999.11
2017-06-10T11:23:39.840Z,999.13
2017-06-10T11:24:39.864Z,999.1
2017-06-10T11:25:40.047Z,999.1
2017-06-10T11:26:39.926Z,999.07
2017-06-10T11:27:39.954Z,999.11
2017-06-10T11:28:39.983Z,999.08
2017-06-10T11:29:40.012Z,999.05
2017-06-10T11:30:40.195Z,999.08
2017-06-10T11:31:40.071Z,999.11
2017-06-10T11:32:40.105Z,999.12
2017-06-10T11:33:40.127Z,999.1
2017-06-10T11:34:40.158Z,999.03
2017-06-10T11:35:40.336Z,999.08
2017-06-10T11:36:40.213Z,999.08
2017-06-10T11:37:40.241Z,999.07
2017-06-10T11:38:40.274Z,998.99
2017-06-10T11:39:40.302Z,998.97
2017-06-10T11:40:40.483Z,999.03
2017-06-10T11:41:40.388Z,998.98
2017-06-10T11:42:40.391Z,998.95
2017-06-10T11:43:40.423Z,998.97
2017-06-10T11:44:40.452Z,998.98
2017-06-10T11:45:40.739Z,998.95
2017-06-10T11:46:40.513Z,998.91
2017-06-10T11:47:40.541Z,998.91
2017-06-10T11:48:40.576Z,998.89
2017-06-10T11:49:40.614Z,998.9
2017-06-10T11:50:40.788Z,998.93
2017-06-10T11:51:40.669Z,998.95
2017-06-10T11:52:40.699Z,998.92
2017-06-10T11:53:40.729Z,998.91
2017-06-10T11:54:40.766Z,998.93
2017-06-10T11:55:41.048Z,998.97
2017-06-10T11:56:40.825Z,998.93
2017-06-10T11:57:40.858Z,998.94
2017-06-10T11:58:40.897Z,998.91
2017-06-10T11:59:40.922Z,998.91
2017-06-10T12:00:41.106Z,998.91
2017-06-10T12:01:40.982Z,998.88
2017-06-10T12:02:41.017Z,998.84
2017-06-10T12:03:41.049Z,998.89
2017-06-10T12:04:41.084Z,998.93
2017-06-10T12:05:41.268Z,998.93
2017-06-10T12:06:41.149Z,998.92
2017-06-10T12:07:41.182Z,998.88
2017-06-10T12:08:41.217Z,998.87
2017-06-10T12:09:41.247Z,998.91
2017-06-10T12:10:41.477Z,998.92
2017-06-10T12:11:41.313Z,998.93
2017-06-10T12:12:41.346Z,998.88
2017-06-10T12:13:41.379Z,998.9
2017-06-10T12:14:41.415Z,998.87
2017-06-10T12:15:41.601Z,998.69
2017-06-10T12:16:41.481Z,998.9
2017-06-10T12:17:41.515Z,998.78
2017-06-10T12:18:41.546Z,998.84
2017-06-10T12:19:41.578Z,998.68
2017-06-10T12:20:41.869Z,998.7
2017-06-10T12:21:41.647Z,998.73
2017-06-10T12:22:41.681Z,998.79
2017-06-10T12:23:41.724Z,998.8
2017-06-10T12:24:41.747Z,998.76
2017-06-10T12:25:41.931Z,998.77
2017-06-10T12:26:41.814Z,998.77
2017-06-10T12:27:41.849Z,998.75
2017-06-10T12:28:41.881Z,998.76
2017-06-10T12:29:41.915Z,998.8
2017-06-10T12:30:42.099Z,998.78
2017-06-10T12:31:41.985Z,998.79